createdAt,value
2023-04-02T00:00:36.201Z,10.90
2023-04-02T00:01:36.155Z,12.20
2023-04-02T00:02:36.210Z,13.00
2023-04-02T00:03:36.236Z,10.30
2023-04-02T00:04:36.095Z,11.00
2023-04-02T00:05:36.405Z,9.60
2023-04-02T00:06:36.223Z,9.30
2023-04-02T00:07:36.076Z,9.80
2023-04-02T00:08:36.044Z,11.50
2023-04-02T00:09:36.077Z,11.10
2023-04-02T00:10:36.043Z,8.60
2023-04-02T00:11:36.029Z,9.60
2023-04-02T00:12:36.038Z,10.10
2023-04-02T00:13:36.105Z,10.60
2023-04-02T00:14:35.954Z,9.50
2023-04-02T00:15:36.343Z,9.30
2023-04-02T00:16:35.971Z,10.60
2023-04-02T00:17:35.970Z,10.60
2023-04-02T00:18:35.968Z,10.80
2023-04-02T00:19:35.929Z,9.40
2023-04-02T00:20:35.900Z,8.30
2023-04-02T00:21:36.359Z,9.80
2023-04-02T00:22:35.863Z,10.60
2023-04-02T00:23:35.897Z,9.80
2023-04-02T00:24:35.968Z,10.20
2023-04-02T00:25:36.098Z,10.50
2023-04-02T00:26:35.809Z,11.60
2023-04-02T00:27:35.835Z,11.10
2023-04-02T00:28:35.775Z,10.40
2023-04-02T00:29:35.824Z,9.90
2023-04-02T00:30:35.810Z,9.70
2023-04-02T00:31:35.805Z,9.80
2023-04-02T00:32:35.809Z,9.50
2023-04-02T00:33:35.755Z,9.90
2023-04-02T00:34:35.696Z,12.10
2023-04-02T00:35:35.990Z,11.90
2023-04-02T00:36:35.801Z,9.70
2023-04-02T00:37:35.700Z,8.70
2023-04-02T00:38:35.684Z,9.50
2023-04-02T00:39:35.670Z,9.10
2023-04-02T00:40:35.644Z,9.20
2023-04-02T00:41:35.664Z,11.00
2023-04-02T00:42:35.709Z,9.80
2023-04-02T00:43:35.636Z,8.90
2023-04-02T00:44:35.556Z,9.50
2023-04-02T00:45:35.988Z,9.30
2023-04-02T00:46:35.569Z,11.00
2023-04-02T00:47:35.592Z,9.10
2023-04-02T00:48:35.580Z,9.20
2023-04-02T00:49:35.553Z,9.30
2023-04-02T00:50:35.492Z,8.40
2023-04-02T00:51:35.551Z,8.30
2023-04-02T00:52:35.491Z,10.70
2023-04-02T00:53:35.521Z,10.60
2023-04-02T00:54:35.520Z,9.10
2023-04-02T00:55:35.723Z,9.10
2023-04-02T00:56:35.420Z,9.10
2023-04-02T00:57:35.463Z,9.70
2023-04-02T00:58:35.470Z,9.30
2023-04-02T00:59:35.430Z,9.30
2023-04-02T01:00:35.439Z,10.40
2023-04-02T01:01:35.393Z,10.70
2023-04-02T01:02:35.445Z,8.80
2023-04-02T01:03:35.894Z,10.20
2023-04-02T01:04:35.318Z,9.70
2023-04-02T01:05:35.743Z,9.40
2023-04-02T01:06:35.348Z,8.70
2023-04-02T01:07:35.290Z,8.90
2023-04-02T01:08:35.269Z,10.10
2023-04-02T01:09:35.272Z,9.90
2023-04-02T01:10:35.204Z,9.40
2023-04-02T01:11:35.269Z,9.10
2023-04-02T01:12:35.321Z,9.50
2023-04-02T01:13:35.219Z,9.40
2023-04-02T01:14:35.176Z,8.90
2023-04-02T01:15:35.327Z,11.20
2023-04-02T01:16:35.132Z,11.10
2023-04-02T01:17:35.228Z,9.80
2023-04-02T01:18:35.159Z,9.30
2023-04-02T01:19:36.092Z,9.40
2023-04-02T01:20:35.102Z,9.30
2023-04-02T01:21:35.087Z,8.70
2023-04-02T01:22:35.078Z,10.40
2023-04-02T01:23:35.090Z,10.20
2023-04-02T01:24:35.079Z,9.40
2023-04-02T01:25:35.222Z,9.60
2023-04-02T01:26:35.019Z,9.90
2023-04-02T01:27:35.006Z,9.90
2023-04-02T01:28:34.970Z,8.60
2023-04-02T01:29:35.005Z,8.20
2023-04-02T01:30:35.082Z,10.50
2023-04-02T01:31:34.994Z,10.80
2023-04-02T01:32:34.961Z,9.80
2023-04-02T01:33:34.941Z,9.10
2023-04-02T01:34:34.918Z,9.00
2023-04-02T01:35:35.064Z,8.90
2023-04-02T01:36:34.975Z,9.80
2023-04-02T01:37:34.930Z,10.40
2023-04-02T01:38:34.874Z,10.30
2023-04-02T01:39:34.854Z,11.80
2023-04-02T01:40:34.861Z,8.50
2023-04-02T01:41:34.822Z,9.70
2023-04-02T01:42:34.815Z,9.50
2023-04-02T01:43:34.841Z,9.90
2023-04-02T01:44:34.757Z,9.70
2023-04-02T01:45:35.159Z,9.60
2023-04-02T01:46:34.791Z,9.90
2023-04-02T01:47:34.752Z,10.60
2023-04-02T01:48:34.770Z,8.30
2023-04-02T01:49:34.706Z,9.20
2023-04-02T01:50:34.694Z,9.80
2023-04-02T01:51:34.719Z,9.90
2023-04-02T01:52:34.645Z,9.20
2023-04-02T01:53:34.709Z,8.70
2023-04-02T01:54:34.685Z,10.10
2023-04-02T01:55:34.864Z,11.00
2023-04-02T01:56:34.639Z,9.20
2023-04-02T01:57:34.626Z,9.60
2023-04-02T01:58:34.566Z,10.10
2023-04-02T01:59:34.623Z,9.60
2023-04-02T02:00:34.690Z,9.10
2023-04-02T02:01:34.560Z,8.90
2023-04-02T02:02:34.627Z,10.40
2023-04-02T02:03:34.582Z,9.50
2023-04-02T02:04:34.489Z,8.90
2023-04-02T02:05:34.699Z,9.80
2023-04-02T02:06:34.632Z,9.50
2023-04-02T02:07:34.476Z,7.70
2023-04-02T02:08:34.584Z,8.40
2023-04-02T02:09:34.458Z,9.90
2023-04-02T02:10:34.429Z,9.70
2023-04-02T02:11:34.470Z,8.90
2023-04-02T02:12:34.423Z,8.30
2023-04-02T02:13:34.424Z,8.30
2023-04-02T02:14:34.387Z,8.00
2023-04-02T02:15:34.661Z,7.60
2023-04-02T02:16:34.367Z,7.90
2023-04-02T02:17:34.458Z,8.60
2023-04-02T02:18:34.448Z,10.00
2023-04-02T02:19:34.347Z,8.90
2023-04-02T02:20:34.306Z,9.00
2023-04-02T02:21:34.287Z,9.20
2023-04-02T02:22:34.278Z,8.70
2023-04-02T02:23:34.293Z,8.30
2023-04-02T02:24:34.264Z,7.60
2023-04-02T02:25:34.531Z,8.80
2023-04-02T02:26:34.221Z,9.20
2023-04-02T02:27:34.210Z,8.00
2023-04-02T02:28:34.199Z,10.20
2023-04-02T02:29:34.177Z,9.00
2023-04-02T02:30:34.165Z,8.10
2023-04-02T02:31:34.233Z,7.90
2023-04-02T02:32:34.168Z,8.60
2023-04-02T02:33:34.160Z,8.60
2023-04-02T02:34:34.091Z,7.80
2023-04-02T02:35:34.526Z,8.30
2023-04-02T02:36:34.118Z,8.20
2023-04-02T02:37:34.105Z,8.30
2023-04-02T02:38:34.059Z,7.30
2023-04-02T02:39:34.080Z,7.80
2023-04-02T02:40:34.033Z,8.80
2023-04-02T02:41:34.026Z,9.00
2023-04-02T02:42:34.121Z,7.70
2023-04-02T02:43:34.035Z,7.90
2023-04-02T02:44:33.954Z,8.60
2023-04-02T02:45:34.343Z,7.90
2023-04-02T02:46:33.956Z,7.50
2023-04-02T02:47:33.971Z,8.60
2023-04-02T02:48:33.986Z,9.10
2023-04-02T02:49:33.888Z,7.70
2023-04-02T02:50:33.910Z,8.10
2023-04-02T02:51:33.882Z,9.00
2023-04-02T02:52:33.862Z,8.70
2023-04-02T02:53:33.879Z,8.50
2023-04-02T02:54:34.006Z,8.40
2023-04-02T02:55:33.984Z,8.70
2023-04-02T02:56:33.867Z,9.20
2023-04-02T02:57:33.816Z,8.10
2023-04-02T02:58:33.785Z,8.00
2023-04-02T02:59:33.821Z,7.40
2023-04-02T03:00:33.878Z,7.30
2023-04-02T03:01:33.776Z,7.60
2023-04-02T03:02:33.882Z,8.60
2023-04-02T03:03:33.799Z,8.30
2023-04-02T03:04:33.712Z,7.60
2023-04-02T03:05:33.944Z,7.60
2023-04-02T03:06:33.752Z,8.40
2023-04-02T03:07:33.660Z,7.40
2023-04-02T03:08:33.698Z,8.20
2023-04-02T03:09:33.618Z,8.60
2023-04-02T03:10:33.630Z,8.40
2023-04-02T03:11:33.620Z,8.50
2023-04-02T03:12:33.739Z,8.70
2023-04-02T03:13:33.598Z,7.70
2023-04-02T03:14:33.603Z,7.90
2023-04-02T03:15:34.031Z,7.00
2023-04-02T03:16:33.581Z,8.20
2023-04-02T03:17:33.520Z,8.80
2023-04-02T03:18:33.631Z,7.60
2023-04-02T03:19:33.536Z,8.60
2023-04-02T03:20:33.530Z,8.00
2023-04-02T03:21:33.453Z,8.60
2023-04-02T03:22:33.495Z,7.50
2023-04-02T03:23:33.458Z,7.70
2023-04-02T03:24:33.563Z,7.00
2023-04-02T03:25:33.621Z,7.60
2023-04-02T03:26:33.463Z,8.80
2023-04-02T03:27:33.385Z,7.50
2023-04-02T03:28:33.432Z,7.90
2023-04-02T03:29:33.354Z,7.60
2023-04-02T03:30:33.406Z,8.40
2023-04-02T03:31:33.400Z,7.50
2023-04-02T03:32:33.365Z,7.00
2023-04-02T03:33:33.324Z,8.80
2023-04-02T03:34:33.346Z,8.30
2023-04-02T03:35:33.590Z,7.20
2023-04-02T03:36:33.329Z,8.10
2023-04-02T03:37:33.277Z,7.50
2023-04-02T03:38:33.301Z,9.20
2023-04-02T03:39:33.227Z,7.90
2023-04-02T03:40:33.266Z,8.70
2023-04-02T03:41:33.236Z,7.50
2023-04-02T03:42:33.265Z,7.70
2023-04-02T03:43:33.194Z,7.90
2023-04-02T03:44:33.208Z,7.60
2023-04-02T03:45:33.339Z,7.80
2023-04-02T03:46:33.243Z,8.20
2023-04-02T03:47:33.179Z,8.80
2023-04-02T03:48:33.184Z,8.10
2023-04-02T03:49:33.100Z,7.80
2023-04-02T03:50:33.120Z,8.00
2023-04-02T03:51:33.092Z,7.90
2023-04-02T03:52:33.082Z,7.50
2023-04-02T03:53:33.063Z,8.10
2023-04-02T03:54:33.150Z,8.60
2023-04-02T03:55:33.289Z,8.20
2023-04-02T03:56:33.058Z,7.30
2023-04-02T03:57:33.036Z,8.70
2023-04-02T03:58:33.956Z,8.20
2023-04-02T03:59:32.988Z,8.20
2023-04-02T04:00:33.013Z,7.80
2023-04-02T04:01:33.062Z,8.50
2023-04-02T04:02:32.989Z,7.50
2023-04-02T04:03:32.947Z,7.70
2023-04-02T04:04:33.058Z,7.40
2023-04-02T04:05:33.055Z,6.70
2023-04-02T04:06:32.941Z,7.10
2023-04-02T04:07:32.914Z,9.00
2023-04-02T04:08:32.904Z,8.50
2023-04-02T04:09:32.839Z,7.30
2023-04-02T04:10:32.856Z,7.60
2023-04-02T04:11:32.817Z,8.20
2023-04-02T04:12:32.840Z,7.10
2023-04-02T04:13:32.816Z,7.10
2023-04-02T04:14:32.819Z,8.60
2023-04-02T04:15:32.908Z,8.20
2023-04-02T04:16:32.818Z,7.30
2023-04-02T04:17:32.757Z,7.50
2023-04-02T04:18:32.860Z,8.00
2023-04-02T04:19:32.720Z,7.30
2023-04-02T04:20:32.701Z,7.40
2023-04-02T04:21:32.694Z,7.80
2023-04-02T04:22:32.742Z,7.40
2023-04-02T04:23:32.653Z,7.30
2023-04-02T04:24:32.690Z,7.40
2023-04-02T04:25:32.633Z,7.20
2023-04-02T04:26:32.658Z,7.20
2023-04-02T04:27:32.588Z,6.90
2023-04-02T04:28:32.641Z,7.60
2023-04-02T04:29:32.582Z,8.10
2023-04-02T04:30:32.607Z,7.60
2023-04-02T04:31:32.579Z,7.40
2023-04-02T04:32:32.627Z,7.70
2023-04-02T04:33:32.532Z,8.40
2023-04-02T04:34:32.550Z,7.10
2023-04-02T04:35:32.546Z,7.60
2023-04-02T04:36:32.568Z,8.50
2023-04-02T04:37:32.453Z,7.60
2023-04-02T04:38:32.464Z,7.30
2023-04-02T04:39:32.458Z,7.80
2023-04-02T04:40:32.481Z,7.80
2023-04-02T04:41:32.399Z,7.00
2023-04-02T04:42:32.458Z,7.90
2023-04-02T04:43:32.404Z,8.60
2023-04-02T04:44:32.389Z,7.50
2023-04-02T04:45:32.606Z,8.00
2023-04-02T04:46:32.432Z,8.00
2023-04-02T04:47:32.349Z,7.90
2023-04-02T04:49:32.329Z,7.40
2023-04-02T04:50:32.314Z,8.20
2023-04-02T04:51:32.291Z,8.30
2023-04-02T04:52:32.307Z,7.40
2023-04-02T04:53:32.283Z,8.00
2023-04-02T04:54:32.328Z,7.30
2023-04-02T04:55:32.232Z,8.20
2023-04-02T04:56:32.271Z,7.60
2023-04-02T04:57:32.204Z,7.80
2023-04-02T04:58:32.231Z,8.00
2023-04-02T04:59:32.226Z,8.00
2023-04-02T05:00:32.206Z,7.90
2023-04-02T05:01:32.180Z,8.20
2023-04-02T05:02:32.247Z,8.90
2023-04-02T05:03:32.127Z,7.50
2023-04-02T05:04:32.219Z,7.60
2023-04-02T05:05:32.142Z,7.60
2023-04-02T05:06:32.212Z,7.90
2023-04-02T05:07:32.099Z,6.90
2023-04-02T05:08:32.069Z,7.70
2023-04-02T05:09:32.065Z,8.60
2023-04-02T05:10:32.097Z,7.80
2023-04-02T05:11:32.007Z,7.80
2023-04-02T05:12:32.136Z,7.20
2023-04-02T05:13:32.002Z,8.40
2023-04-02T05:14:32.018Z,7.30
2023-04-02T05:15:32.012Z,7.50
2023-04-02T05:16:32.113Z,8.50
2023-04-02T05:17:31.963Z,7.40
2023-04-02T05:18:32.059Z,7.50
2023-04-02T05:19:31.922Z,7.40
2023-04-02T05:20:31.918Z,7.60
2023-04-02T05:21:31.898Z,8.40
2023-04-02T05:22:31.912Z,8.00
2023-04-02T05:23:31.853Z,7.60
2023-04-02T05:24:32.012Z,7.50
2023-04-02T05:25:31.822Z,7.60
2023-04-02T05:26:31.845Z,7.70
2023-04-02T05:27:31.839Z,8.40
2023-04-02T05:28:31.837Z,7.50
2023-04-02T05:29:31.771Z,7.40
2023-04-02T05:30:31.831Z,7.40
2023-04-02T05:31:31.802Z,7.60
2023-04-02T05:32:31.805Z,7.40
2023-04-02T05:33:31.740Z,6.90
2023-04-02T05:34:31.756Z,8.20
2023-04-02T05:35:31.716Z,8.70
2023-04-02T05:36:31.804Z,7.20
2023-04-02T05:37:31.662Z,7.40
2023-04-02T05:38:31.677Z,7.40
2023-04-02T05:39:31.662Z,7.20
2023-04-02T05:40:31.656Z,6.80
2023-04-02T05:41:31.661Z,7.10
2023-04-02T05:42:31.700Z,7.40
2023-04-02T05:43:31.588Z,7.90
2023-04-02T05:44:31.619Z,7.10
2023-04-02T05:45:31.592Z,7.70
2023-04-02T05:46:31.619Z,7.60
2023-04-02T05:47:31.619Z,7.10
2023-04-02T05:48:31.686Z,6.90
2023-04-02T05:49:31.521Z,7.80
2023-04-02T05:50:31.536Z,8.40
2023-04-02T05:51:31.524Z,7.90
2023-04-02T05:52:31.502Z,7.00
2023-04-02T05:53:31.489Z,7.00
2023-04-02T05:54:31.523Z,7.30
2023-04-02T05:55:31.429Z,7.00
2023-04-02T05:56:31.473Z,7.40
2023-04-02T05:57:42.110Z,8.20
2023-04-02T05:58:36.213Z,7.20
2023-04-02T05:59:31.405Z,7.50
2023-04-02T06:00:31.460Z,7.10
2023-04-02T06:01:31.396Z,7.60
2023-04-02T06:02:31.557Z,7.00
2023-04-02T06:03:31.374Z,7.00
2023-04-02T06:04:31.387Z,7.10
2023-04-02T06:05:31.294Z,6.60
2023-04-02T06:06:31.421Z,6.80
2023-04-02T06:07:31.289Z,7.90
2023-04-02T06:08:31.313Z,7.80
2023-04-02T06:09:31.267Z,7.20
2023-04-02T06:10:31.284Z,7.20
2023-04-02T06:11:31.225Z,7.00
2023-04-02T06:12:31.285Z,6.80
2023-04-02T06:13:31.215Z,7.40
2023-04-02T06:14:31.212Z,6.80
2023-04-02T06:15:31.190Z,7.40
2023-04-02T06:16:31.227Z,7.10
2023-04-02T06:17:31.160Z,7.20
2023-04-02T06:18:31.214Z,7.10
2023-04-02T06:19:31.134Z,7.40
2023-04-02T06:20:31.119Z,6.90
2023-04-02T06:21:31.126Z,6.70
2023-04-02T06:22:31.130Z,7.40
2023-04-02T06:23:31.272Z,8.00
2023-04-02T06:24:31.110Z,7.20
2023-04-02T06:25:31.031Z,7.20
2023-04-02T06:26:31.042Z,7.10
2023-04-02T06:27:31.015Z,7.00
2023-04-02T06:28:31.029Z,6.80
2023-04-02T06:29:31.010Z,7.40
2023-04-02T06:30:31.057Z,7.70
2023-04-02T06:31:30.969Z,6.90
2023-04-02T06:32:30.974Z,7.10
2023-04-02T06:33:30.945Z,6.70
2023-04-02T06:34:30.983Z,6.50
2023-04-02T06:35:30.903Z,6.80
2023-04-02T06:36:31.056Z,6.70
2023-04-02T06:37:30.869Z,7.10
2023-04-02T06:38:30.913Z,7.00
2023-04-02T06:39:30.877Z,6.70
2023-04-02T06:40:30.855Z,7.30
2023-04-02T06:41:30.838Z,6.80
2023-04-02T06:42:30.893Z,6.70
2023-04-02T06:43:30.800Z,6.70
2023-04-02T06:44:30.834Z,7.60
2023-04-02T06:45:30.784Z,7.60
2023-04-02T06:46:30.898Z,6.50
2023-04-02T06:47:30.779Z,7.00
2023-04-02T06:48:30.817Z,7.20
2023-04-02T06:49:30.705Z,6.50
2023-04-02T06:50:30.724Z,6.20
2023-04-02T06:51:30.702Z,7.40
2023-04-02T06:52:30.706Z,7.50
2023-04-02T06:53:30.716Z,6.90
2023-04-02T06:54:30.806Z,7.20
2023-04-02T06:55:30.665Z,6.50
2023-04-02T06:56:30.705Z,6.30
2023-04-02T06:57:30.684Z,6.40
2023-04-02T06:58:30.607Z,7.00
2023-04-02T06:59:30.630Z,7.80
2023-04-02T07:00:30.620Z,6.90
2023-04-02T07:01:30.647Z,6.40
2023-04-02T07:02:30.604Z,7.00
2023-04-02T07:03:30.524Z,6.50
2023-04-02T07:04:30.519Z,6.60
2023-04-02T07:05:30.583Z,7.00
2023-04-02T07:06:30.622Z,7.00
2023-04-02T07:07:30.498Z,6.90
2023-04-02T07:08:30.481Z,6.90
2023-04-02T07:09:30.464Z,6.90
2023-04-02T07:10:30.447Z,7.70
2023-04-02T07:11:30.456Z,6.40
2023-04-02T07:12:30.440Z,6.90
2023-04-02T07:13:30.435Z,7.30
2023-04-02T07:14:30.390Z,7.30
2023-04-02T07:15:30.381Z,6.90
2023-04-02T07:16:30.417Z,7.00
2023-04-02T07:17:30.404Z,6.90
2023-04-02T07:18:30.350Z,6.40
2023-04-02T07:19:30.350Z,6.70
2023-04-02T07:20:30.349Z,7.30
2023-04-02T07:21:30.301Z,7.30
2023-04-02T07:22:30.268Z,6.70
2023-04-02T07:23:30.289Z,6.30
2023-04-02T07:24:30.344Z,6.30
2023-04-02T07:25:30.283Z,6.20
2023-04-02T07:26:30.229Z,6.50
2023-04-02T07:27:30.215Z,7.20
2023-04-02T07:28:30.231Z,7.10
2023-04-02T07:29:30.197Z,6.50
2023-04-02T07:30:30.188Z,6.60
2023-04-02T07:31:30.219Z,6.80
2023-04-02T07:32:30.142Z,6.50
2023-04-02T07:33:30.193Z,6.80
2023-04-02T07:34:30.122Z,7.20
2023-04-02T07:35:30.118Z,7.50
2023-04-02T07:36:30.106Z,6.90
2023-04-02T07:37:30.150Z,6.80
2023-04-02T07:38:30.071Z,6.70
2023-04-02T07:39:30.058Z,6.40
2023-04-02T07:40:30.045Z,6.80
2023-04-02T07:41:31.031Z,7.40
2023-04-02T07:42:30.107Z,7.30
2023-04-02T07:43:30.068Z,7.00
2023-04-02T07:44:29.969Z,6.50
2023-04-02T07:45:30.009Z,6.50
2023-04-02T07:46:30.013Z,6.10
2023-04-02T07:47:29.982Z,6.20
2023-04-02T07:48:30.008Z,6.90
2023-04-02T07:49:29.965Z,7.40
2023-04-02T07:50:29.882Z,6.40
2023-04-02T07:51:29.926Z,6.70
2023-04-02T07:52:29.888Z,6.90
2023-04-02T07:53:30.146Z,6.50
2023-04-02T07:54:29.858Z,6.90
2023-04-02T07:55:29.867Z,7.10
2023-04-02T07:56:29.805Z,6.90
2023-04-02T07:57:29.939Z,6.70
2023-04-02T07:58:29.849Z,6.90
2023-04-02T07:59:29.814Z,6.50
2023-04-02T08:00:29.820Z,7.00
2023-04-02T08:01:29.777Z,6.80
2023-04-02T08:02:29.765Z,7.00
2023-04-02T08:03:29.864Z,5.90
2023-04-02T08:04:29.706Z,6.60
2023-04-02T08:05:29.756Z,7.30
2023-04-02T08:06:29.823Z,6.70
2023-04-02T08:07:29.696Z,6.30
2023-04-02T08:08:29.674Z,6.40
2023-04-02T08:09:29.660Z,6.90
2023-04-02T08:10:29.657Z,7.00
2023-04-02T08:11:31.670Z,7.30
2023-04-02T08:12:29.626Z,6.70
2023-04-02T08:13:29.696Z,6.30
2023-04-02T08:14:29.622Z,6.10
2023-04-02T08:15:29.587Z,6.80
2023-04-02T08:16:29.582Z,7.00
2023-04-02T08:17:29.637Z,6.40
2023-04-02T08:18:29.563Z,6.40
2023-04-02T08:19:29.562Z,6.50
2023-04-02T08:20:29.518Z,7.30
2023-04-02T08:21:29.527Z,6.60
2023-04-02T08:22:29.491Z,6.20
2023-04-02T08:23:29.488Z,6.10
2023-04-02T08:24:29.474Z,6.80
2023-04-02T08:25:29.479Z,6.50
2023-04-02T08:26:29.454Z,6.10
2023-04-02T08:27:29.422Z,6.10
2023-04-02T08:28:29.422Z,7.30
2023-04-02T08:29:29.420Z,6.00
2023-04-02T08:30:29.424Z,6.60
2023-04-02T08:31:29.440Z,7.00
2023-04-02T08:32:29.409Z,6.10
2023-04-02T08:33:29.376Z,6.20
2023-04-02T08:34:29.335Z,6.70
2023-04-02T08:35:29.348Z,6.40
2023-04-02T08:36:29.391Z,6.80
2023-04-02T08:37:29.295Z,7.20
2023-04-02T08:38:29.253Z,6.50
2023-04-02T08:39:29.319Z,6.30
2023-04-02T08:40:29.255Z,6.10
2023-04-02T08:41:29.238Z,6.50
2023-04-02T08:42:29.237Z,6.70
2023-04-02T08:43:29.248Z,6.70
2023-04-02T08:44:29.187Z,6.30
2023-04-02T08:45:29.237Z,6.30
2023-04-02T08:46:29.222Z,6.30
2023-04-02T08:47:29.210Z,6.60
2023-04-02T08:48:29.178Z,6.90
2023-04-02T08:49:29.155Z,6.00
2023-04-02T08:50:29.094Z,6.40
2023-04-02T08:51:29.125Z,6.30
2023-04-02T08:52:29.073Z,6.30
2023-04-02T08:53:29.146Z,6.90
2023-04-02T08:54:29.133Z,6.70
2023-04-02T08:55:29.082Z,6.30
2023-04-02T08:56:29.076Z,5.90
2023-04-02T08:57:29.191Z,6.60
2023-04-02T08:58:29.106Z,6.40
2023-04-02T08:59:29.086Z,6.70
2023-04-02T09:00:29.130Z,6.10
2023-04-02T09:01:28.993Z,6.10
2023-04-02T09:02:28.989Z,6.20
2023-04-02T09:03:28.966Z,6.40
2023-04-02T09:04:28.925Z,6.40
2023-04-02T09:05:28.968Z,6.10
2023-04-02T09:06:28.933Z,6.10
2023-04-02T09:07:29.850Z,6.20
2023-04-02T09:08:28.889Z,6.20
2023-04-02T09:09:28.881Z,6.60
2023-04-02T09:10:28.842Z,6.70
2023-04-02T09:11:28.846Z,6.10
2023-04-02T09:12:28.907Z,6.00
2023-04-02T09:13:28.847Z,6.10
2023-04-02T09:14:29.758Z,6.60
2023-04-02T09:15:28.777Z,6.70
2023-04-02T09:16:28.854Z,7.20
2023-04-02T09:17:31.188Z,6.80
2023-04-02T09:18:29.815Z,6.60
2023-04-02T09:19:28.748Z,6.50
2023-04-02T09:20:28.681Z,6.70
2023-04-02T09:21:28.720Z,6.00
2023-04-02T09:22:28.712Z,5.90
2023-04-02T09:23:28.666Z,6.60
2023-04-02T09:24:28.773Z,6.10
2023-04-02T09:25:28.648Z,6.10
2023-04-02T09:26:28.609Z,5.90
2023-04-02T09:27:28.642Z,5.70
2023-04-02T09:28:28.604Z,5.90
2023-04-02T09:29:28.593Z,6.20
2023-04-02T09:30:28.665Z,6.10
2023-04-02T09:31:28.651Z,6.00
2023-04-02T09:32:28.590Z,6.10
2023-04-02T09:33:28.566Z,6.20
2023-04-02T09:34:28.527Z,6.30
2023-04-02T09:35:28.510Z,5.80
2023-04-02T09:36:28.695Z,6.00
2023-04-02T09:37:28.492Z,5.60
2023-04-02T09:38:28.479Z,5.80
2023-04-02T09:39:28.501Z,6.70
2023-04-02T09:40:28.422Z,5.90
2023-04-02T09:41:28.454Z,5.80
2023-04-02T09:42:28.442Z,6.20
2023-04-02T09:43:28.427Z,5.80
2023-04-02T09:44:28.378Z,6.30
2023-04-02T09:45:28.428Z,5.70
2023-04-02T09:46:28.385Z,6.30
2023-04-02T09:47:28.406Z,6.10
2023-04-02T09:48:28.459Z,6.30
2023-04-02T09:49:28.328Z,6.30
2023-04-02T09:50:28.291Z,5.70
2023-04-02T09:51:28.352Z,6.10
2023-04-02T09:52:28.308Z,6.10
2023-04-02T09:53:28.299Z,6.30
2023-04-02T09:54:28.391Z,6.20
2023-04-02T09:55:28.252Z,5.70
2023-04-02T09:56:28.251Z,6.30
2023-04-02T09:57:28.266Z,5.90
2023-04-02T09:58:28.177Z,6.00
2023-04-02T09:59:28.251Z,6.10
2023-04-02T10:00:32.122Z,5.80
2023-04-02T10:01:28.217Z,5.80
2023-04-02T10:02:28.171Z,5.90
2023-04-02T10:03:28.136Z,5.80
2023-04-02T10:04:28.117Z,6.60
2023-04-02T10:05:40.013Z,5.60
2023-04-02T10:06:29.213Z,5.80
2023-04-02T10:07:28.083Z,5.70
2023-04-02T10:08:28.115Z,5.90
2023-04-02T10:09:28.071Z,6.30
2023-04-02T10:10:28.012Z,5.80
2023-04-02T10:11:36.524Z,5.60
2023-04-02T10:12:29.027Z,5.50
2023-04-02T10:13:28.070Z,5.80
2023-04-02T10:14:27.992Z,5.90
2023-04-02T10:15:27.975Z,6.10
2023-04-02T10:16:28.060Z,6.10
2023-04-02T10:17:27.981Z,5.70
2023-04-02T10:18:27.950Z,5.60
2023-04-02T10:19:27.947Z,6.30
2023-04-02T10:20:28.544Z,6.10
2023-04-02T10:21:27.924Z,6.10
2023-04-02T10:22:27.878Z,5.90
2023-04-02T10:23:27.867Z,5.70
2023-04-02T10:24:27.885Z,5.80
2023-04-02T10:25:27.844Z,5.90
2023-04-02T10:26:27.804Z,5.90
2023-04-02T10:27:27.839Z,6.20
2023-04-02T10:28:27.783Z,6.10
2023-04-02T10:29:27.839Z,5.90
2023-04-02T10:30:27.815Z,6.00
2023-04-02T10:31:27.839Z,5.90
2023-04-02T10:32:27.752Z,5.50
2023-04-02T10:33:27.761Z,5.80
2023-04-02T10:34:27.722Z,5.50
2023-04-02T10:35:27.738Z,5.30
2023-04-02T10:36:27.716Z,5.50
2023-04-02T10:37:27.678Z,5.90
2023-04-02T10:38:27.656Z,5.70
2023-04-02T10:39:27.676Z,5.80
2023-04-02T10:40:27.630Z,5.80
2023-04-02T10:41:27.677Z,5.60
2023-04-02T10:42:27.730Z,6.20
2023-04-02T10:43:27.612Z,6.00
2023-04-02T10:44:27.616Z,6.40
2023-04-02T10:45:27.575Z,6.00
2023-04-02T10:46:27.562Z,6.00
2023-04-02T10:47:27.642Z,6.00
2023-04-02T10:48:27.565Z,6.00
2023-04-02T10:49:27.594Z,6.00
2023-04-02T10:50:27.502Z,6.40
2023-04-02T10:51:27.527Z,6.10
2023-04-02T10:52:27.456Z,6.60
2023-04-02T10:53:27.513Z,5.80
2023-04-02T10:54:27.500Z,5.80
2023-04-02T10:55:27.441Z,5.70
2023-04-02T10:56:28.523Z,5.90
2023-04-02T10:57:27.482Z,5.90
2023-04-02T10:58:27.375Z,6.10
2023-04-02T10:59:27.413Z,6.20
2023-04-02T11:00:27.363Z,6.00
2023-04-02T11:01:27.404Z,6.10
2023-04-02T11:02:27.404Z,5.80
2023-04-02T11:03:27.466Z,5.60
2023-04-02T11:04:27.288Z,5.70
2023-04-02T11:05:27.325Z,5.40
2023-04-02T11:06:28.457Z,5.60
2023-04-02T11:07:27.286Z,5.50
2023-04-02T11:08:27.266Z,5.10
2023-04-02T11:09:27.255Z,5.40
2023-04-02T11:10:27.215Z,5.40
2023-04-02T11:11:27.258Z,5.80
2023-04-02T11:12:27.308Z,5.80
2023-04-02T11:13:27.236Z,5.50
2023-04-02T11:14:27.172Z,5.50
2023-04-02T11:15:27.174Z,5.30
2023-04-02T11:16:27.256Z,5.70
2023-04-02T11:17:27.148Z,6.00
2023-04-02T11:18:27.218Z,5.70
2023-04-02T11:19:27.160Z,5.70
2023-04-02T11:20:27.125Z,5.70
2023-04-02T11:21:27.067Z,5.60
2023-04-02T11:22:27.076Z,5.30
2023-04-02T11:23:27.067Z,5.50
2023-04-02T11:24:27.095Z,5.20
2023-04-02T11:25:27.035Z,5.70
2023-04-02T11:26:27.039Z,5.60
2023-04-02T11:27:27.006Z,5.50
2023-04-02T11:28:27.016Z,5.90
2023-04-02T11:29:26.950Z,5.80
2023-04-02T11:30:27.080Z,5.40
2023-04-02T11:31:27.007Z,5.70
2023-04-02T11:32:26.970Z,5.30
2023-04-02T11:33:36.552Z,5.80
2023-04-02T11:34:27.948Z,5.70
2023-04-02T11:35:26.873Z,5.20
2023-04-02T11:36:27.010Z,5.50
2023-04-02T11:37:26.880Z,5.30
2023-04-02T11:38:26.882Z,5.30
2023-04-02T11:39:26.821Z,5.20
2023-04-02T11:40:26.873Z,5.50
2023-04-02T11:41:26.792Z,5.60
2023-04-02T11:42:26.836Z,5.40
2023-04-02T11:43:26.807Z,5.10
2023-04-02T11:44:26.782Z,4.90
2023-04-02T11:45:26.766Z,5.30
2023-04-02T11:46:26.860Z,4.90
2023-04-02T11:47:26.759Z,5.10
2023-04-02T11:48:26.859Z,5.00
2023-04-02T11:49:26.683Z,5.00
2023-04-02T11:50:26.704Z,4.90
2023-04-02T11:51:26.685Z,4.90
2023-04-02T11:52:26.706Z,4.90
2023-04-02T11:53:26.643Z,5.00
2023-04-02T11:54:26.676Z,5.20
2023-04-02T11:55:26.629Z,5.00
2023-04-02T11:56:26.611Z,5.40
2023-04-02T11:57:26.645Z,5.10
2023-04-02T11:58:26.609Z,5.10
2023-04-02T11:59:26.549Z,5.00
2023-04-02T12:00:26.718Z,4.70
2023-04-02T12:01:26.519Z,4.60
2023-04-02T12:02:26.605Z,5.10
2023-04-02T12:03:26.507Z,4.60
2023-04-02T12:04:26.508Z,4.70
2023-04-02T12:05:26.611Z,4.90
2023-04-02T12:06:26.606Z,4.40
2023-04-02T12:07:26.454Z,4.80
2023-04-02T12:08:26.444Z,4.70
2023-04-02T12:09:26.437Z,4.90
2023-04-02T12:10:26.463Z,4.70
2023-04-02T12:11:26.373Z,4.60
2023-04-02T12:12:26.443Z,4.40
2023-04-02T12:13:26.383Z,4.60
2023-04-02T12:14:26.372Z,4.80
2023-04-02T12:15:26.361Z,5.10
2023-04-02T12:16:26.353Z,5.00
2023-04-02T12:17:26.411Z,5.00
2023-04-02T12:18:26.441Z,4.90
2023-04-02T12:19:26.265Z,5.30
2023-04-02T12:20:26.309Z,5.50
2023-04-02T12:21:26.246Z,5.10
2023-04-02T12:22:26.255Z,5.30
2023-04-02T12:23:26.243Z,5.10
2023-04-02T12:24:26.358Z,5.30
2023-04-02T12:25:26.214Z,5.00
2023-04-02T12:26:26.222Z,4.80
2023-04-02T12:27:26.174Z,4.90
2023-04-02T12:28:26.192Z,4.50
2023-04-02T12:29:26.163Z,5.20
2023-04-02T12:30:26.277Z,5.20
2023-04-02T12:31:26.169Z,4.70
2023-04-02T12:32:27.828Z,5.00
2023-04-02T12:33:26.124Z,5.00
2023-04-02T12:34:26.127Z,4.90
2023-04-02T12:35:26.057Z,4.70
2023-04-02T12:36:26.238Z,5.20
2023-04-02T12:37:26.032Z,5.40
2023-04-02T12:38:26.038Z,5.10
2023-04-02T12:39:28.257Z,5.00
2023-04-02T12:40:26.035Z,5.00
2023-04-02T12:41:25.971Z,5.10
2023-04-02T12:42:26.120Z,4.90
2023-04-02T12:43:26.015Z,4.80
2023-04-02T12:44:25.979Z,5.00
2023-04-02T12:45:27.948Z,5.00
2023-04-02T12:46:25.991Z,5.00
2023-04-02T12:47:25.921Z,4.80
2023-04-02T12:48:25.976Z,4.70
2023-04-02T12:49:25.876Z,4.60
2023-04-02T12:50:25.885Z,4.70
2023-04-02T12:51:28.303Z,4.40
2023-04-02T12:52:25.854Z,4.40
2023-04-02T12:53:25.842Z,4.60
2023-04-02T12:54:25.978Z,4.80
2023-04-02T12:55:25.787Z,4.60
2023-04-02T12:56:25.799Z,4.60
2023-04-02T12:57:25.834Z,4.60
2023-04-02T12:58:25.792Z,4.60
2023-04-02T12:59:25.726Z,4.90
2023-04-02T13:00:25.810Z,4.50
2023-04-02T13:01:25.746Z,4.80
2023-04-02T13:02:25.713Z,4.80
2023-04-02T13:03:35.459Z,4.80
2023-04-02T13:04:25.690Z,4.90
2023-04-02T13:05:25.677Z,4.90
2023-04-02T13:06:25.732Z,4.70
2023-04-02T13:07:25.632Z,4.70
2023-04-02T13:08:25.667Z,4.80
2023-04-02T13:09:27.338Z,4.70
2023-04-02T13:19:33.770Z,4.80
2023-04-02T13:19:38.427Z,4.40
2023-04-02T13:20:38.585Z,4.10
2023-04-02T13:21:39.106Z,3.80
2023-04-02T13:22:38.375Z,3.40
2023-04-02T13:23:38.388Z,3.50
2023-04-02T13:24:38.385Z,3.40
2023-04-02T13:25:38.325Z,3.70
2023-04-02T13:26:38.389Z,3.80